• Join FlightAware (Why Join?)
  • Login
  • US Flag 
02:43PM EDT


 

Airport Tracker/Info


-or-


 

Live Flight TrackerFlight Track Log ✈ UAL582 ✈ 12-May-2013 ✈ CYYZ - KORD

Flight Track Log - Related Links

Times and Time Zones

All times are in EDT time to prevent confusion due to time zone crossing. See the UAL582 flight status page for this flight to view local times or setup timezone preferences in your user account.

Time Position Orientation Groundspeed Altitude Reporting Facility
EDT Latitude Longitude Course Direction KTS MPH feet Rate Location/Type
05:31PM 43.6500 -79.6833 277° West 170 196 2,400  Level Toronto Center
05:32PM 43.6167 -79.7333 227° Southwest 220 253 4,700 2,700 Climbing Toronto Center
05:33PM 43.7028 -79.9996 277° West  Level FlightAware Approximate
05:33PM 43.6500 -79.8000 305° West 240 276 7,800  Level Toronto Center
05:34PM 43.7135 -80.1283 277° West  Level FlightAware Approximate
05:34PM 43.7000 -79.8667 316° Northwest 250 288 10,300  Level Toronto Center
05:35PM 43.7204 -80.2573 277° West  Level FlightAware Approximate
05:35PM 43.7500 -79.9500 310° West 290 334 12,200  Level Toronto Center
05:36PM 43.7321 -80.3859 277° West  Level FlightAware Approximate
05:36PM 43.7500 -80.1000 270° West 310 357 14,800  Level Toronto Center
05:37PM 43.7500 -80.2167 270° West 320 368 16,700 1,500 Climbing Toronto Center
05:38PM 43.7500 -80.3500 270° West 350 403 17,900 1,140 Climbing Toronto Center
05:39PM 43.7500 -80.4833 270° West 380 437 19,000 1,320 Climbing Toronto Center
05:40PM 43.7167 -80.6500 255° West 400 460 20,600 1,380 Climbing Toronto Center
05:41PM 43.6833 -80.7833 251° West 410 472 21,800 1,080 Climbing Toronto Center
05:42PM 43.6333 -80.9500 248° West 420 483 22,800 960 Climbing Toronto Center
05:43PM 43.6000 -81.1000 253° West 440 506 23,800 1,020 Climbing Toronto Center
05:44PM 43.5667 -81.2833 256° West 440 506 24,900 960 Climbing Toronto Center
05:45PM 43.5333 -81.4500 255° West 450 518 25,800 1,800 Climbing Toronto Center
05:46PM 43.5000 -81.5833 251° West 440 506 28,600 1,860 Climbing Toronto Center
05:47PM 43.4667 -81.7500 255° West 420 483 29,600 960 Climbing Toronto Center
05:48PM 43.4333 -81.9000 253° West 430 495 30,600 1,080 Climbing Toronto Center
05:49PM 43.3833 -82.0667 248° West 430 495 31,800 1,140 Climbing Toronto Center
05:49PM 43.3894 -82.1458 276° West 425 489 32,300 1,260 Climbing Cleveland Center
05:50PM 43.3500 -82.2167 233° Southwest 430 495 33,100 960 Climbing Toronto Center
05:51PM 43.3167 -82.3833 255° West 420 483 33,800 420 Climbing Toronto Center
05:52PM 43.2833 -82.5333 253° West 430 495 34,000 60 Climbing Toronto Center
05:53PM 43.2333 -82.7000 248° West 430 495 34,000  Level Toronto Center
05:53PM 43.2417 -82.7719 279° West 430 495 34,000  Level Cleveland Center
05:54PM 43.1972 -82.9211 248° West 436 502 34,000  Level Cleveland Center
05:55PM 43.1567 -83.0678 249° West 447 514 34,000  Level Cleveland Center
05:56PM 43.1158 -83.2197 250° West 442 509 34,000  Level Cleveland Center
05:57PM 43.0725 -83.3769 249° West 442 509 34,000 -360 Level Cleveland Center
05:58PM 43.0292 -83.5256 248° West 442 509 33,300 -900 Descending Cleveland Center
05:59PM 42.9833 -83.6825 248° West 442 509 32,300 -660 Descending Cleveland Center
06:00PM 42.9561 -83.8400 257° West 437 503 32,000 -180 Descending Cleveland Center
06:01PM 42.9414 -83.9925 263° West 426 490 32,000  Level Cleveland Center
06:03PM 42.9178 -84.2428 263° West 403 464 32,000 -60 Level Chicago Center
06:04PM 42.9031 -84.3958 263° West 405 466 31,900  Descending Chicago Center
06:05PM 42.8883 -84.5478 263° West 406 467 32,000  Climbing Chicago Center
06:06PM 42.8686 -84.7297 262° West 405 466 32,000  Level Chicago Center
06:07PM 42.8536 -84.8794 262° West 399 459 32,000  Level Chicago Center
06:08PM 42.8381 -85.0289 262° West 400 460 32,000  Level Chicago Center
06:09PM 42.8211 -85.1819 261° West 408 470 32,000  Level Chicago Center
06:10PM 42.8036 -85.3431 262° West 426 490 32,000 -180 Level Chicago Center
06:11PM 42.7853 -85.5031 261° West 427 491 31,700 -780 Descending Chicago Center
06:12PM 42.7578 -85.6608 257° West 427 491 30,500 -2,040 Descending Chicago Center
06:13PM 42.7231 -85.8492 256° West 426 490 27,500 -2,880 Descending Chicago Center
06:14PM 42.6961 -85.9972 256° West 410 472 24,600 -2,400 Descending Chicago Center
06:15PM 42.6697 -86.1464 257° West 404 465 22,600 -2,100 Descending Chicago Center
06:16PM 42.6433 -86.2881 256° West 390 449 20,300 -1,800 Descending Chicago Center
06:17PM 42.6161 -86.4239 255° West 376 433 19,000 -1,560 Descending Chicago Center
06:18PM 42.5917 -86.5583 256° West 369 425 17,100 -1,920 Descending Chicago Center
06:19PM 42.5669 -86.6903 256° West 362 417 15,100 -2,100 Descending Chicago Center
06:21PM 42.5292 -86.8439 252° West 357 411 12,800 -1,920 Descending Chicago Center
06:22PM 42.4958 -86.9667 250° West 350 403 11,100 -1,080 Descending Chicago Center
06:23PM 42.4653 -87.0711 248° West 301 346 10,600 -1,020 Descending Chicago Center
06:24PM 42.4389 -87.1664 249° West 274 315 9,100 -780 Descending Chicago Center
06:25PM 42.4133 -87.2628 250° West 274 315 9,000 -60 Descending Chicago Center
06:26PM 42.3342 -87.2822 190° South 300 345 9,000  Level Chicago Center
06:27PM 42.2392 -87.2683 174° South 308 354 9,000  Level Chicago Center
06:28PM 42.1525 -87.2547 173° South 312 359 9,000  Level Chicago Center
06:29PM 42.0539 -87.2400 174° South 299 344 9,000  Level Chicago Center
06:30PM 41.9819 -87.2297 174° South 265 305 9,000  Level Chicago Center
06:31PM 41.9767 -87.3003 264° West 218 251 9,000 -180 Level Chicago Center
06:32PM 41.9828 -87.3806 276° West 219 252 8,700 -600 Descending Chicago Center
06:32PM 41.9833 -87.4167 271° West 208 239 8,100 -1,500 Descending Chicago TRACON
06:33PM 41.9833 -87.5000 270° West 218 251 6,500 -1,500 Descending Chicago TRACON
06:34PM 41.9833 -87.5833 270° West 203 234 5,200 -1,200 Descending Chicago TRACON
06:35PM 41.9833 -87.6500 270° West 203 234 4,100 -1,140 Descending Chicago TRACON